sensor_id;sensor_type;location;lat;lon;timestamp;P1;durP1;ratioP1;P2;durP2;ratioP2
11490;SDS011;5802;52.832;4.758;2023-03-31T00:00:21;11.43;;;3.40;;
11490;SDS011;5802;52.832;4.758;2023-03-31T00:02:49;10.15;;;2.78;;
11490;SDS011;5802;52.832;4.758;2023-03-31T00:05:18;8.93;;;3.42;;
11490;SDS011;5802;52.832;4.758;2023-03-31T00:07:51;9.45;;;3.25;;
11490;SDS011;5802;52.832;4.758;2023-03-31T00:10:19;5.75;;;2.78;;
11490;SDS011;5802;52.832;4.758;2023-03-31T00:12:47;7.70;;;3.03;;
11490;SDS011;5802;52.832;4.758;2023-03-31T00:15:14;8.65;;;3.55;;
11490;SDS011;5802;52.832;4.758;2023-03-31T00:17:42;8.45;;;2.95;;
11490;SDS011;5802;52.832;4.758;2023-03-31T00:20:10;9.35;;;3.25;;
11490;SDS011;5802;52.832;4.758;2023-03-31T00:22:37;9.75;;;3.30;;
11490;SDS011;5802;52.832;4.758;2023-03-31T00:25:07;11.48;;;3.20;;
11490;SDS011;5802;52.832;4.758;2023-03-31T00:27:36;9.73;;;3.28;;
11490;SDS011;5802;52.832;4.758;2023-03-31T00:30:03;11.73;;;3.08;;
11490;SDS011;5802;52.832;4.758;2023-03-31T00:32:30;8.57;;;2.70;;
11490;SDS011;5802;52.832;4.758;2023-03-31T00:34:58;10.27;;;3.20;;
11490;SDS011;5802;52.832;4.758;2023-03-31T00:37:27;12.75;;;3.08;;
11490;SDS011;5802;52.832;4.758;2023-03-31T00:39:54;7.72;;;2.78;;
11490;SDS011;5802;52.832;4.758;2023-03-31T00:42:22;7.22;;;2.80;;
11490;SDS011;5802;52.832;4.758;2023-03-31T00:47:47;6.78;;;2.67;;
11490;SDS011;5802;52.832;4.758;2023-03-31T00:50:19;13.95;;;3.40;;
11490;SDS011;5802;52.832;4.758;2023-03-31T00:52:50;9.50;;;2.72;;
11490;SDS011;5802;52.832;4.758;2023-03-31T00:55:22;9.73;;;3.20;;
11490;SDS011;5802;52.832;4.758;2023-03-31T00:57:52;8.57;;;3.00;;
11490;SDS011;5802;52.832;4.758;2023-03-31T01:00:20;9.88;;;3.13;;
11490;SDS011;5802;52.832;4.758;2023-03-31T01:02:48;7.43;;;2.67;;
11490;SDS011;5802;52.832;4.758;2023-03-31T01:05:20;11.57;;;3.42;;
11490;SDS011;5802;52.832;4.758;2023-03-31T01:07:50;7.35;;;2.55;;
11490;SDS011;5802;52.832;4.758;2023-03-31T01:10:18;10.30;;;3.10;;
11490;SDS011;5802;52.832;4.758;2023-03-31T01:12:46;11.48;;;3.17;;
11490;SDS011;5802;52.832;4.758;2023-03-31T01:15:16;7.38;;;2.78;;
11490;SDS011;5802;52.832;4.758;2023-03-31T01:17:43;8.52;;;2.78;;
11490;SDS011;5802;52.832;4.758;2023-03-31T01:20:12;7.25;;;2.92;;
11490;SDS011;5802;52.832;4.758;2023-03-31T01:22:45;11.55;;;3.13;;
11490;SDS011;5802;52.832;4.758;2023-03-31T01:28:30;7.70;;;2.72;;
11490;SDS011;5802;52.832;4.758;2023-03-31T01:34:04;10.18;;;2.85;;
11490;SDS011;5802;52.832;4.758;2023-03-31T01:37:11;6.63;;;2.78;;
11490;SDS011;5802;52.832;4.758;2023-03-31T01:42:49;7.72;;;2.60;;
11490;SDS011;5802;52.832;4.758;2023-03-31T01:45:30;6.97;;;2.50;;
11490;SDS011;5802;52.832;4.758;2023-03-31T01:48:06;8.25;;;2.40;;
11490;SDS011;5802;52.832;4.758;2023-03-31T01:50:40;7.78;;;2.63;;
11490;SDS011;5802;52.832;4.758;2023-03-31T01:53:14;4.22;;;2.20;;
11490;SDS011;5802;52.832;4.758;2023-03-31T01:55:49;6.47;;;2.30;;
11490;SDS011;5802;52.832;4.758;2023-03-31T01:58:23;9.43;;;2.92;;
11490;SDS011;5802;52.832;4.758;2023-03-31T02:00:57;6.57;;;2.38;;
11490;SDS011;5802;52.832;4.758;2023-03-31T02:03:28;7.07;;;2.78;;
11490;SDS011;5802;52.832;4.758;2023-03-31T02:05:59;7.85;;;2.22;;
11490;SDS011;5802;52.832;4.758;2023-03-31T02:08:32;7.70;;;2.45;;
11490;SDS011;5802;52.832;4.758;2023-03-31T02:11:04;5.45;;;2.40;;
11490;SDS011;5802;52.832;4.758;2023-03-31T02:13:31;5.55;;;2.53;;
11490;SDS011;5802;52.832;4.758;2023-03-31T02:16:03;6.97;;;2.40;;
11490;SDS011;5802;52.832;4.758;2023-03-31T02:18:34;5.22;;;2.30;;
11490;SDS011;5802;52.832;4.758;2023-03-31T02:21:06;5.28;;;2.20;;
11490;SDS011;5802;52.832;4.758;2023-03-31T02:23:33;5.85;;;2.20;;
11490;SDS011;5802;52.832;4.758;2023-03-31T02:26:06;6.47;;;2.17;;
11490;SDS011;5802;52.832;4.758;2023-03-31T02:28:35;4.63;;;2.22;;
11490;SDS011;5802;52.832;4.758;2023-03-31T02:31:04;5.78;;;2.20;;
11490;SDS011;5802;52.832;4.758;2023-03-31T02:33:38;5.00;;;1.70;;
11490;SDS011;5802;52.832;4.758;2023-03-31T02:36:05;8.00;;;2.08;;
11490;SDS011;5802;52.832;4.758;2023-03-31T02:38:33;4.78;;;2.20;;
11490;SDS011;5802;52.832;4.758;2023-03-31T02:41:04;6.07;;;2.45;;
11490;SDS011;5802;52.832;4.758;2023-03-31T02:43:31;6.43;;;2.22;;
11490;SDS011;5802;52.832;4.758;2023-03-31T02:45:58;5.72;;;2.03;;
11490;SDS011;5802;52.832;4.758;2023-03-31T02:48:25;5.35;;;2.08;;
11490;SDS011;5802;52.832;4.758;2023-03-31T02:51:00;4.78;;;2.00;;
11490;SDS011;5802;52.832;4.758;2023-03-31T02:53:47;3.83;;;2.00;;
11490;SDS011;5802;52.832;4.758;2023-03-31T02:56:36;3.90;;;2.00;;
11490;SDS011;5802;52.832;4.758;2023-03-31T02:59:14;8.55;;;2.08;;
11490;SDS011;5802;52.832;4.758;2023-03-31T03:01:56;6.50;;;1.77;;
11490;SDS011;5802;52.832;4.758;2023-03-31T03:04:38;5.70;;;1.73;;
11490;SDS011;5802;52.832;4.758;2023-03-31T03:07:23;4.35;;;1.90;;
11490;SDS011;5802;52.832;4.758;2023-03-31T03:09:57;4.75;;;2.38;;
11490;SDS011;5802;52.832;4.758;2023-03-31T03:12:31;4.38;;;1.80;;
11490;SDS011;5802;52.832;4.758;2023-03-31T03:15:01;4.72;;;1.80;;
11490;SDS011;5802;52.832;4.758;2023-03-31T03:17:33;3.70;;;1.58;;
11490;SDS011;5802;52.832;4.758;2023-03-31T03:20:02;4.88;;;1.95;;
11490;SDS011;5802;52.832;4.758;2023-03-31T03:22:32;2.80;;;1.52;;
11490;SDS011;5802;52.832;4.758;2023-03-31T03:24:59;3.38;;;1.60;;
11490;SDS011;5802;52.832;4.758;2023-03-31T03:27:26;3.72;;;1.58;;
11490;SDS011;5802;52.832;4.758;2023-03-31T03:29:55;4.57;;;1.60;;
11490;SDS011;5802;52.832;4.758;2023-03-31T03:32:22;3.50;;;1.63;;
11490;SDS011;5802;52.832;4.758;2023-03-31T03:34:48;3.75;;;1.63;;
11490;SDS011;5802;52.832;4.758;2023-03-31T03:37:15;3.03;;;1.50;;
11490;SDS011;5802;52.832;4.758;2023-03-31T03:39:42;6.22;;;1.70;;
11490;SDS011;5802;52.832;4.758;2023-03-31T03:42:08;3.42;;;1.58;;
11490;SDS011;5802;52.832;4.758;2023-03-31T03:44:35;1.92;;;1.25;;
11490;SDS011;5802;52.832;4.758;2023-03-31T03:47:03;3.55;;;1.40;;
11490;SDS011;5802;52.832;4.758;2023-03-31T03:49:30;3.45;;;1.73;;
11490;SDS011;5802;52.832;4.758;2023-03-31T03:51:57;2.17;;;1.20;;
11490;SDS011;5802;52.832;4.758;2023-03-31T03:54:24;3.00;;;1.58;;
11490;SDS011;5802;52.832;4.758;2023-03-31T03:56:50;3.13;;;1.50;;
11490;SDS011;5802;52.832;4.758;2023-03-31T03:59:17;2.55;;;1.48;;
11490;SDS011;5802;52.832;4.758;2023-03-31T04:01:44;2.50;;;1.67;;
11490;SDS011;5802;52.832;4.758;2023-03-31T04:04:12;2.00;;;1.40;;
11490;SDS011;5802;52.832;4.758;2023-03-31T04:06:38;2.38;;;1.33;;
11490;SDS011;5802;52.832;4.758;2023-03-31T04:09:05;3.53;;;1.60;;
11490;SDS011;5802;52.832;4.758;2023-03-31T04:11:32;3.10;;;1.45;;
11490;SDS011;5802;52.832;4.758;2023-03-31T04:13:59;5.43;;;1.70;;
11490;SDS011;5802;52.832;4.758;2023-03-31T04:16:25;3.28;;;1.23;;
11490;SDS011;5802;52.832;4.758;2023-03-31T04:18:52;2.78;;;1.48;;
11490;SDS011;5802;52.832;4.758;2023-03-31T04:21:24;5.80;;;1.70;;
11490;SDS011;5802;52.832;4.758;2023-03-31T04:23:52;2.70;;;1.45;;
11490;SDS011;5802;52.832;4.758;2023-03-31T04:26:26;1.98;;;1.42;;
11490;SDS011;5802;52.832;4.758;2023-03-31T04:29:02;3.50;;;1.50;;
11490;SDS011;5802;52.832;4.758;2023-03-31T04:31:31;4.00;;;1.75;;
11490;SDS011;5802;52.832;4.758;2023-03-31T04:33:59;2.83;;;1.50;;
11490;SDS011;5802;52.832;4.758;2023-03-31T04:36:27;5.05;;;1.55;;
11490;SDS011;5802;52.832;4.758;2023-03-31T04:38:55;1.80;;;1.20;;
11490;SDS011;5802;52.832;4.758;2023-03-31T04:41:22;2.83;;;1.42;;
11490;SDS011;5802;52.832;4.758;2023-03-31T04:43:51;3.45;;;1.38;;
11490;SDS011;5802;52.832;4.758;2023-03-31T04:46:18;2.85;;;1.10;;
11490;SDS011;5802;52.832;4.758;2023-03-31T04:48:45;2.60;;;1.30;;
11490;SDS011;5802;52.832;4.758;2023-03-31T04:51:12;2.83;;;1.20;;
11490;SDS011;5802;52.832;4.758;2023-03-31T04:53:40;3.00;;;1.40;;
11490;SDS011;5802;52.832;4.758;2023-03-31T04:56:07;1.75;;;1.05;;
11490;SDS011;5802;52.832;4.758;2023-03-31T04:58:34;3.35;;;1.27;;
11490;SDS011;5802;52.832;4.758;2023-03-31T05:01:00;2.63;;;1.35;;
11490;SDS011;5802;52.832;4.758;2023-03-31T05:03:27;3.30;;;1.23;;
11490;SDS011;5802;52.832;4.758;2023-03-31T05:05:53;2.58;;;1.20;;
11490;SDS011;5802;52.832;4.758;2023-03-31T05:08:20;2.33;;;1.08;;
11490;SDS011;5802;52.832;4.758;2023-03-31T05:10:48;2.17;;;1.45;;
11490;SDS011;5802;52.832;4.758;2023-03-31T05:13:15;2.22;;;1.33;;
11490;SDS011;5802;52.832;4.758;2023-03-31T05:15:42;3.10;;;1.20;;
11490;SDS011;5802;52.832;4.758;2023-03-31T05:18:09;3.28;;;1.60;;
11490;SDS011;5802;52.832;4.758;2023-03-31T05:20:36;2.63;;;1.30;;
11490;SDS011;5802;52.832;4.758;2023-03-31T05:23:02;2.78;;;1.40;;
11490;SDS011;5802;52.832;4.758;2023-03-31T05:25:29;3.15;;;1.42;;
11490;SDS011;5802;52.832;4.758;2023-03-31T05:27:58;2.40;;;1.33;;
11490;SDS011;5802;52.832;4.758;2023-03-31T05:30:26;2.55;;;1.20;;
11490;SDS011;5802;52.832;4.758;2023-03-31T05:32:53;2.58;;;1.40;;
11490;SDS011;5802;52.832;4.758;2023-03-31T05:35:20;2.30;;;1.20;;
11490;SDS011;5802;52.832;4.758;2023-03-31T05:37:47;1.55;;;1.00;;
11490;SDS011;5802;52.832;4.758;2023-03-31T05:40:15;2.28;;;1.20;;
11490;SDS011;5802;52.832;4.758;2023-03-31T05:42:42;2.63;;;1.08;;
11490;SDS011;5802;52.832;4.758;2023-03-31T05:45:10;2.53;;;1.20;;
11490;SDS011;5802;52.832;4.758;2023-03-31T05:47:37;3.00;;;1.10;;
11490;SDS011;5802;52.832;4.758;2023-03-31T05:50:04;1.45;;;1.00;;
11490;SDS011;5802;52.832;4.758;2023-03-31T05:52:32;2.17;;;1.38;;
11490;SDS011;5802;52.832;4.758;2023-03-31T05:55:00;2.47;;;1.25;;
11490;SDS011;5802;52.832;4.758;2023-03-31T05:57:27;1.58;;;1.20;;
11490;SDS011;5802;52.832;4.758;2023-03-31T05:59:54;1.73;;;1.00;;
11490;SDS011;5802;52.832;4.758;2023-03-31T06:02:22;1.92;;;1.00;;
11490;SDS011;5802;52.832;4.758;2023-03-31T06:04:48;2.45;;;0.85;;
11490;SDS011;5802;52.832;4.758;2023-03-31T06:07:16;2.45;;;1.23;;
11490;SDS011;5802;52.832;4.758;2023-03-31T06:09:44;1.75;;;1.13;;
11490;SDS011;5802;52.832;4.758;2023-03-31T06:12:11;2.47;;;1.20;;
11490;SDS011;5802;52.832;4.758;2023-03-31T06:14:37;3.28;;;1.27;;
11490;SDS011;5802;52.832;4.758;2023-03-31T06:17:04;1.50;;;0.90;;
11490;SDS011;5802;52.832;4.758;2023-03-31T06:19:32;1.38;;;0.85;;
11490;SDS011;5802;52.832;4.758;2023-03-31T06:21:59;4.28;;;1.23;;
11490;SDS011;5802;52.832;4.758;2023-03-31T06:24:26;1.77;;;1.25;;
11490;SDS011;5802;52.832;4.758;2023-03-31T06:26:52;2.10;;;0.90;;
11490;SDS011;5802;52.832;4.758;2023-03-31T06:29:19;4.40;;;1.90;;
11490;SDS011;5802;52.832;4.758;2023-03-31T06:31:46;2.22;;;0.90;;
11490;SDS011;5802;52.832;4.758;2023-03-31T06:34:13;2.22;;;1.08;;
11490;SDS011;5802;52.832;4.758;2023-03-31T06:36:41;1.52;;;0.80;;
11490;SDS011;5802;52.832;4.758;2023-03-31T06:39:07;1.88;;;1.00;;
11490;SDS011;5802;52.832;4.758;2023-03-31T06:41:34;1.83;;;1.00;;
11490;SDS011;5802;52.832;4.758;2023-03-31T06:44:02;4.95;;;1.20;;
11490;SDS011;5802;52.832;4.758;2023-03-31T06:46:30;2.80;;;1.10;;
11490;SDS011;5802;52.832;4.758;2023-03-31T06:48:57;1.73;;;1.00;;
11490;SDS011;5802;52.832;4.758;2023-03-31T06:51:24;1.70;;;0.90;;
11490;SDS011;5802;52.832;4.758;2023-03-31T06:53:52;1.45;;;0.90;;
11490;SDS011;5802;52.832;4.758;2023-03-31T06:56:18;3.50;;;1.10;;
11490;SDS011;5802;52.832;4.758;2023-03-31T06:58:46;2.88;;;1.23;;
11490;SDS011;5802;52.832;4.758;2023-03-31T07:01:12;2.88;;;1.23;;
11490;SDS011;5802;52.832;4.758;2023-03-31T07:03:39;2.78;;;1.00;;
11490;SDS011;5802;52.832;4.758;2023-03-31T07:06:07;2.83;;;0.93;;
11490;SDS011;5802;52.832;4.758;2023-03-31T07:08:33;1.85;;;1.15;;
11490;SDS011;5802;52.832;4.758;2023-03-31T07:11:01;1.13;;;0.90;;
11490;SDS011;5802;52.832;4.758;2023-03-31T07:13:28;1.05;;;0.90;;
11490;SDS011;5802;52.832;4.758;2023-03-31T07:15:55;1.67;;;1.00;;
11490;SDS011;5802;52.832;4.758;2023-03-31T07:18:22;1.42;;;1.05;;
11490;SDS011;5802;52.832;4.758;2023-03-31T07:20:56;2.08;;;0.85;;
11490;SDS011;5802;52.832;4.758;2023-03-31T07:23:24;1.73;;;0.75;;
11490;SDS011;5802;52.832;4.758;2023-03-31T07:25:50;1.98;;;0.95;;
11490;SDS011;5802;52.832;4.758;2023-03-31T07:28:18;1.27;;;0.93;;
11490;SDS011;5802;52.832;4.758;2023-03-31T07:30:45;1.77;;;0.90;;
11490;SDS011;5802;52.832;4.758;2023-03-31T07:33:12;2.08;;;1.00;;
11490;SDS011;5802;52.832;4.758;2023-03-31T07:35:38;1.50;;;0.90;;
11490;SDS011;5802;52.832;4.758;2023-03-31T07:38:06;2.70;;;1.02;;
11490;SDS011;5802;52.832;4.758;2023-03-31T07:40:33;2.08;;;0.98;;
11490;SDS011;5802;52.832;4.758;2023-03-31T07:43:00;3.03;;;1.20;;
11490;SDS011;5802;52.832;4.758;2023-03-31T07:45:28;1.75;;;0.95;;
11490;SDS011;5802;52.832;4.758;2023-03-31T07:47:55;1.92;;;1.25;;
11490;SDS011;5802;52.832;4.758;2023-03-31T07:50:22;1.23;;;0.98;;
11490;SDS011;5802;52.832;4.758;2023-03-31T07:52:49;2.75;;;1.10;;
11490;SDS011;5802;52.832;4.758;2023-03-31T07:55:16;4.38;;;1.00;;
11490;SDS011;5802;52.832;4.758;2023-03-31T07:57:44;1.65;;;0.90;;
11490;SDS011;5802;52.832;4.758;2023-03-31T08:00:12;1.83;;;0.90;;
11490;SDS011;5802;52.832;4.758;2023-03-31T08:02:41;1.27;;;0.88;;
11490;SDS011;5802;52.832;4.758;2023-03-31T08:05:09;1.77;;;1.00;;
11490;SDS011;5802;52.832;4.758;2023-03-31T08:07:37;2.45;;;1.10;;
11490;SDS011;5802;52.832;4.758;2023-03-31T08:10:06;2.38;;;0.82;;
11490;SDS011;5802;52.832;4.758;2023-03-31T08:12:35;1.65;;;0.90;;
11490;SDS011;5802;52.832;4.758;2023-03-31T08:15:02;3.05;;;0.98;;
11490;SDS011;5802;52.832;4.758;2023-03-31T08:17:30;3.72;;;1.10;;
11490;SDS011;5802;52.832;4.758;2023-03-31T08:19:58;3.53;;;1.17;;
11490;SDS011;5802;52.832;4.758;2023-03-31T08:22:24;2.90;;;1.30;;
11490;SDS011;5802;52.832;4.758;2023-03-31T08:24:51;2.42;;;1.00;;
11490;SDS011;5802;52.832;4.758;2023-03-31T08:27:18;2.97;;;1.00;;
11490;SDS011;5802;52.832;4.758;2023-03-31T08:29:44;2.25;;;1.05;;
11490;SDS011;5802;52.832;4.758;2023-03-31T08:32:12;1.42;;;0.90;;
11490;SDS011;5802;52.832;4.758;2023-03-31T08:34:38;2.67;;;1.10;;
11490;SDS011;5802;52.832;4.758;2023-03-31T08:37:08;1.25;;;0.70;;
11490;SDS011;5802;52.832;4.758;2023-03-31T08:39:34;3.28;;;1.20;;
11490;SDS011;5802;52.832;4.758;2023-03-31T08:42:02;3.35;;;1.10;;
11490;SDS011;5802;52.832;4.758;2023-03-31T08:44:33;1.90;;;0.90;;
11490;SDS011;5802;52.832;4.758;2023-03-31T08:47:03;2.75;;;0.80;;
11490;SDS011;5802;52.832;4.758;2023-03-31T08:49:36;1.58;;;1.02;;
11490;SDS011;5802;52.832;4.758;2023-03-31T08:52:09;3.83;;;1.27;;
11490;SDS011;5802;52.832;4.758;2023-03-31T08:54:40;3.60;;;1.20;;
11490;SDS011;5802;52.832;4.758;2023-03-31T08:57:11;2.35;;;1.00;;
11490;SDS011;5802;52.832;4.758;2023-03-31T08:59:43;1.52;;;0.90;;
11490;SDS011;5802;52.832;4.758;2023-03-31T09:02:14;2.05;;;1.10;;
11490;SDS011;5802;52.832;4.758;2023-03-31T09:07:49;2.28;;;1.00;;
11490;SDS011;5802;52.832;4.758;2023-03-31T09:10:27;6.82;;;1.08;;
11490;SDS011;5802;52.832;4.758;2023-03-31T09:13:01;2.75;;;0.82;;
11490;SDS011;5802;52.832;4.758;2023-03-31T09:15:37;2.97;;;0.80;;
11490;SDS011;5802;52.832;4.758;2023-03-31T09:18:11;1.25;;;0.85;;
11490;SDS011;5802;52.832;4.758;2023-03-31T09:20:43;1.85;;;0.80;;
11490;SDS011;5802;52.832;4.758;2023-03-31T09:23:16;2.72;;;1.10;;
11490;SDS011;5802;52.832;4.758;2023-03-31T09:25:49;2.80;;;0.88;;
11490;SDS011;5802;52.832;4.758;2023-03-31T09:28:17;2.05;;;0.90;;
11490;SDS011;5802;52.832;4.758;2023-03-31T09:30:46;2.83;;;0.95;;
11490;SDS011;5802;52.832;4.758;2023-03-31T09:33:16;2.35;;;1.00;;
11490;SDS011;5802;52.832;4.758;2023-03-31T09:35:45;1.50;;;0.80;;
11490;SDS011;5802;52.832;4.758;2023-03-31T09:38:11;3.45;;;1.05;;
11490;SDS011;5802;52.832;4.758;2023-03-31T09:40:40;5.95;;;1.80;;
11490;SDS011;5802;52.832;4.758;2023-03-31T09:43:09;5.80;;;1.63;;
11490;SDS011;5802;52.832;4.758;2023-03-31T09:45:46;7.38;;;1.70;;
11490;SDS011;5802;52.832;4.758;2023-03-31T09:48:14;7.45;;;1.63;;
11490;SDS011;5802;52.832;4.758;2023-03-31T09:50:44;5.20;;;1.80;;
11490;SDS011;5802;52.832;4.758;2023-03-31T09:53:17;8.27;;;1.80;;
11490;SDS011;5802;52.832;4.758;2023-03-31T09:55:51;8.15;;;2.00;;
11490;SDS011;5802;52.832;4.758;2023-03-31T09:58:20;7.18;;;1.85;;
11490;SDS011;5802;52.832;4.758;2023-03-31T10:00:55;5.10;;;1.63;;
11490;SDS011;5802;52.832;4.758;2023-03-31T10:03:24;5.00;;;1.55;;
11490;SDS011;5802;52.832;4.758;2023-03-31T10:05:54;7.13;;;1.55;;
11490;SDS011;5802;52.832;4.758;2023-03-31T10:08:25;13.13;;;1.90;;
11490;SDS011;5802;52.832;4.758;2023-03-31T10:10:54;12.60;;;1.75;;
11490;SDS011;5802;52.832;4.758;2023-03-31T10:13:22;12.98;;;2.45;;
11490;SDS011;5802;52.832;4.758;2023-03-31T10:15:51;14.07;;;2.63;;
11490;SDS011;5802;52.832;4.758;2023-03-31T10:18:19;11.05;;;2.35;;
11490;SDS011;5802;52.832;4.758;2023-03-31T10:20:48;21.13;;;3.50;;
11490;SDS011;5802;52.832;4.758;2023-03-31T10:23:17;20.42;;;3.50;;
11490;SDS011;5802;52.832;4.758;2023-03-31T10:25:52;26.05;;;4.57;;
11490;SDS011;5802;52.832;4.758;2023-03-31T10:28:20;31.58;;;5.90;;
11490;SDS011;5802;52.832;4.758;2023-03-31T10:30:48;25.05;;;5.57;;
11490;SDS011;5802;52.832;4.758;2023-03-31T10:33:18;22.33;;;5.72;;
11490;SDS011;5802;52.832;4.758;2023-03-31T10:35:49;36.42;;;6.57;;
11490;SDS011;5802;52.832;4.758;2023-03-31T10:38:23;34.00;;;6.93;;
11490;SDS011;5802;52.832;4.758;2023-03-31T10:40:53;33.88;;;6.57;;
11490;SDS011;5802;52.832;4.758;2023-03-31T10:43:23;27.05;;;7.07;;
11490;SDS011;5802;52.832;4.758;2023-03-31T10:45:52;27.95;;;6.57;;
11490;SDS011;5802;52.832;4.758;2023-03-31T10:48:23;28.92;;;6.88;;
11490;SDS011;5802;52.832;4.758;2023-03-31T10:50:51;26.70;;;5.90;;
11490;SDS011;5802;52.832;4.758;2023-03-31T10:53:18;24.02;;;6.32;;
11490;SDS011;5802;52.832;4.758;2023-03-31T10:55:51;18.45;;;5.80;;
11490;SDS011;5802;52.832;4.758;2023-03-31T10:58:33;20.48;;;5.57;;
11490;SDS011;5802;52.832;4.758;2023-03-31T11:01:11;21.67;;;5.15;;
11490;SDS011;5802;52.832;4.758;2023-03-31T11:03:52;19.83;;;5.10;;
11490;SDS011;5802;52.832;4.758;2023-03-31T11:06:28;18.35;;;4.43;;
11490;SDS011;5802;52.832;4.758;2023-03-31T11:09:06;14.27;;;4.63;;
11490;SDS011;5802;52.832;4.758;2023-03-31T11:11:51;16.45;;;4.03;;
11490;SDS011;5802;52.832;4.758;2023-03-31T11:14:28;13.98;;;3.55;;
11490;SDS011;5802;52.832;4.758;2023-03-31T11:17:04;13.50;;;3.97;;
11490;SDS011;5802;52.832;4.758;2023-03-31T11:19:41;10.77;;;3.50;;
11490;SDS011;5802;52.832;4.758;2023-03-31T11:22:19;15.68;;;3.92;;
11490;SDS011;5802;52.832;4.758;2023-03-31T11:25:06;12.40;;;3.20;;
11490;SDS011;5802;52.832;4.758;2023-03-31T11:27:49;16.33;;;3.45;;
11490;SDS011;5802;52.832;4.758;2023-03-31T11:30:26;10.68;;;3.88;;
11490;SDS011;5802;52.832;4.758;2023-03-31T11:33:01;15.88;;;4.13;;
11490;SDS011;5802;52.832;4.758;2023-03-31T11:35:45;11.48;;;3.30;;
11490;SDS011;5802;52.832;4.758;2023-03-31T11:38:32;7.40;;;3.03;;
11490;SDS011;5802;52.832;4.758;2023-03-31T11:41:09;10.98;;;3.10;;
11490;SDS011;5802;52.832;4.758;2023-03-31T11:43:41;12.15;;;3.15;;
11490;SDS011;5802;52.832;4.758;2023-03-31T11:46:10;9.52;;;2.67;;
11490;SDS011;5802;52.832;4.758;2023-03-31T11:48:42;13.02;;;3.13;;
11490;SDS011;5802;52.832;4.758;2023-03-31T11:51:13;8.02;;;2.85;;
11490;SDS011;5802;52.832;4.758;2023-03-31T11:53:42;12.43;;;3.00;;
11490;SDS011;5802;52.832;4.758;2023-03-31T11:56:11;7.35;;;2.85;;
11490;SDS011;5802;52.832;4.758;2023-03-31T11:58:43;9.57;;;3.13;;
11490;SDS011;5802;52.832;4.758;2023-03-31T12:01:14;9.80;;;2.95;;
11490;SDS011;5802;52.832;4.758;2023-03-31T12:03:47;9.80;;;3.00;;
11490;SDS011;5802;52.832;4.758;2023-03-31T12:06:21;8.88;;;2.45;;
11490;SDS011;5802;52.832;4.758;2023-03-31T12:09:00;8.55;;;2.80;;
11490;SDS011;5802;52.832;4.758;2023-03-31T12:11:34;12.50;;;3.03;;
11490;SDS011;5802;52.832;4.758;2023-03-31T12:14:14;7.78;;;2.60;;
11490;SDS011;5802;52.832;4.758;2023-03-31T12:16:51;7.07;;;2.80;;
11490;SDS011;5802;52.832;4.758;2023-03-31T12:19:21;7.88;;;3.50;;
11490;SDS011;5802;52.832;4.758;2023-03-31T12:21:54;7.82;;;3.17;;
11490;SDS011;5802;52.832;4.758;2023-03-31T12:24:23;9.80;;;3.45;;
11490;SDS011;5802;52.832;4.758;2023-03-31T12:26:53;15.15;;;13.60;;
11490;SDS011;5802;52.832;4.758;2023-03-31T12:29:30;20.02;;;16.35;;
11490;SDS011;5802;52.832;4.758;2023-03-31T12:32:00;17.30;;;14.43;;
11490;SDS011;5802;52.832;4.758;2023-03-31T12:34:30;29.25;;;26.23;;
11490;SDS011;5802;52.832;4.758;2023-03-31T12:37:06;34.83;;;31.38;;
11490;SDS011;5802;52.832;4.758;2023-03-31T12:39:43;35.88;;;29.25;;
11490;SDS011;5802;52.832;4.758;2023-03-31T12:42:31;28.25;;;24.92;;
11490;SDS011;5802;52.832;4.758;2023-03-31T12:45:13;27.35;;;24.60;;
11490;SDS011;5802;52.832;4.758;2023-03-31T12:47:50;24.92;;;22.58;;
11490;SDS011;5802;52.832;4.758;2023-03-31T12:50:32;25.65;;;22.00;;
11490;SDS011;5802;52.832;4.758;2023-03-31T12:53:09;25.02;;;21.27;;
11490;SDS011;5802;52.832;4.758;2023-03-31T12:55:44;22.45;;;20.20;;
11490;SDS011;5802;52.832;4.758;2023-03-31T12:58:35;22.08;;;19.88;;
11490;SDS011;5802;52.832;4.758;2023-03-31T13:01:14;21.73;;;18.88;;
11490;SDS011;5802;52.832;4.758;2023-03-31T13:03:48;22.23;;;19.15;;
11490;SDS011;5802;52.832;4.758;2023-03-31T13:09:39;18.52;;;16.70;;
11490;SDS011;5802;52.832;4.758;2023-03-31T13:12:20;18.90;;;16.38;;
11490;SDS011;5802;52.832;4.758;2023-03-31T13:14:50;17.85;;;16.10;;
11490;SDS011;5802;52.832;4.758;2023-03-31T13:17:21;17.17;;;15.35;;
11490;SDS011;5802;52.832;4.758;2023-03-31T13:19:50;16.85;;;15.05;;
11490;SDS011;5802;52.832;4.758;2023-03-31T13:22:30;15.75;;;14.02;;
11490;SDS011;5802;52.832;4.758;2023-03-31T13:28:07;14.80;;;13.27;;
11490;SDS011;5802;52.832;4.758;2023-03-31T13:30:44;13.77;;;12.48;;
11490;SDS011;5802;52.832;4.758;2023-03-31T13:33:14;12.88;;;11.57;;
11490;SDS011;5802;52.832;4.758;2023-03-31T13:35:50;12.75;;;11.45;;
11490;SDS011;5802;52.832;4.758;2023-03-31T13:38:25;15.52;;;11.35;;
11490;SDS011;5802;52.832;4.758;2023-03-31T13:41:07;11.55;;;10.38;;
11490;SDS011;5802;52.832;4.758;2023-03-31T13:43:47;11.32;;;9.48;;
11490;SDS011;5802;52.832;4.758;2023-03-31T13:46:32;10.18;;;9.18;;
11490;SDS011;5802;52.832;4.758;2023-03-31T13:52:20;10.82;;;9.07;;
11490;SDS011;5802;52.832;4.758;2023-03-31T13:55:05;13.05;;;8.02;;
11490;SDS011;5802;52.832;4.758;2023-03-31T13:57:56;9.18;;;8.23;;
11490;SDS011;5802;52.832;4.758;2023-03-31T14:00:48;9.40;;;7.60;;
11490;SDS011;5802;52.832;4.758;2023-03-31T14:03:33;8.25;;;7.38;;
11490;SDS011;5802;52.832;4.758;2023-03-31T14:06:15;7.78;;;6.97;;
11490;SDS011;5802;52.832;4.758;2023-03-31T14:08:49;8.63;;;6.68;;
11490;SDS011;5802;52.832;4.758;2023-03-31T14:11:20;7.35;;;6.65;;
11490;SDS011;5802;52.832;4.758;2023-03-31T14:13:58;8.05;;;6.57;;
11490;SDS011;5802;52.832;4.758;2023-03-31T14:16:27;6.68;;;6.00;;
11490;SDS011;5802;52.832;4.758;2023-03-31T14:18:59;8.63;;;5.78;;
11490;SDS011;5802;52.832;4.758;2023-03-31T14:21:49;6.18;;;5.45;;
11490;SDS011;5802;52.832;4.758;2023-03-31T14:24:24;6.90;;;5.45;;
11490;SDS011;5802;52.832;4.758;2023-03-31T14:26:58;7.43;;;5.03;;
11490;SDS011;5802;52.832;4.758;2023-03-31T14:29:33;6.38;;;5.10;;
11490;SDS011;5802;52.832;4.758;2023-03-31T14:32:06;8.13;;;4.72;;
11490;SDS011;5802;52.832;4.758;2023-03-31T14:34:44;6.32;;;4.45;;
11490;SDS011;5802;52.832;4.758;2023-03-31T14:37:29;7.93;;;3.80;;
11490;SDS011;5802;52.832;4.758;2023-03-31T14:39:56;5.18;;;3.80;;
11490;SDS011;5802;52.832;4.758;2023-03-31T14:42:25;6.45;;;3.30;;
11490;SDS011;5802;52.832;4.758;2023-03-31T14:44:55;6.78;;;3.47;;
11490;SDS011;5802;52.832;4.758;2023-03-31T14:47:23;6.03;;;3.10;;
11490;SDS011;5802;52.832;4.758;2023-03-31T14:50:02;3.85;;;2.78;;
11490;SDS011;5802;52.832;4.758;2023-03-31T14:52:35;6.25;;;2.90;;
11490;SDS011;5802;52.832;4.758;2023-03-31T14:55:02;4.72;;;2.70;;
11490;SDS011;5802;52.832;4.758;2023-03-31T14:57:29;4.25;;;2.80;;
11490;SDS011;5802;52.832;4.758;2023-03-31T14:59:59;8.73;;;3.03;;
11490;SDS011;5802;52.832;4.758;2023-03-31T15:02:29;4.95;;;2.60;;
11490;SDS011;5802;52.832;4.758;2023-03-31T15:05:02;3.15;;;2.45;;
11490;SDS011;5802;52.832;4.758;2023-03-31T15:07:31;4.43;;;2.60;;
11490;SDS011;5802;52.832;4.758;2023-03-31T15:10:00;4.28;;;2.35;;
11490;SDS011;5802;52.832;4.758;2023-03-31T15:12:27;2.88;;;2.10;;
11490;SDS011;5802;52.832;4.758;2023-03-31T15:14:55;2.95;;;2.08;;
11490;SDS011;5802;52.832;4.758;2023-03-31T15:17:27;3.03;;;2.20;;
11490;SDS011;5802;52.832;4.758;2023-03-31T15:19:57;2.60;;;2.10;;
11490;SDS011;5802;52.832;4.758;2023-03-31T15:22:25;2.45;;;1.90;;
11490;SDS011;5802;52.832;4.758;2023-03-31T15:24:54;3.35;;;2.00;;
11490;SDS011;5802;52.832;4.758;2023-03-31T15:27:26;3.83;;;1.88;;
11490;SDS011;5802;52.832;4.758;2023-03-31T15:29:59;3.33;;;2.00;;
11490;SDS011;5802;52.832;4.758;2023-03-31T15:32:29;4.97;;;1.88;;
11490;SDS011;5802;52.832;4.758;2023-03-31T15:34:58;3.40;;;1.90;;
11490;SDS011;5802;52.832;4.758;2023-03-31T15:37:28;3.40;;;1.90;;
11490;SDS011;5802;52.832;4.758;2023-03-31T15:40:00;2.80;;;1.63;;
11490;SDS011;5802;52.832;4.758;2023-03-31T15:42:32;5.05;;;1.98;;
11490;SDS011;5802;52.832;4.758;2023-03-31T15:45:09;2.50;;;1.70;;